Bremerton, WA (98312)

08:37 PM PDT del 25 Settembre 2016 (GMT -0700)
Lk Wm. Symington | | Change Station

Alt. 500 ft 47.60 °N, 122.83 °W | Updated 24 seconds ago

Clear
Sereno
62.1 °F
Sembra 62.1 °F
N
0.0
Vento Variabile Vento da ONO
Gusts 0.0 mph

Oggi
Massima -- | Minima -- °F
--% Possibilità di precip.
Ieri
Massima -- | Minima -- °F
Precip. -- in
Pressione 30.31 in
Visibilità 10.0 miglia
Nuvole Sereno
Punto di rugiada 51 °F
Umidità 67%
Piovosità 0.00 in
Spessore del manto nevoso Non disponibile.
7:02 AM 7:01 PM
Luna calante, 22% visible
METAR KPWT 260335Z AUTO 04009KT 10SM CLR 17/09 A3031 RMK AO1
Pressione 30.31 in
Visibilità 10.0 miglia
Nuvole Sereno
Punto di rugiada 51 °F
Umidità 67%
Piovosità 0.00 in
Spessore del manto nevoso Non disponibile.
7:02 AM 7:01 PM
Luna calante, 22% visible
METAR KPWT 260335Z AUTO 04009KT 10SM CLR 17/09 A3031 RMK AO1

10-Day Weather Forecast

Almanac

Astronomia

Sep. 25, 2016 Alba Tramonto
Ora attuale
Crepuscolo civile
Crepuscolo nautico
Crepuscolo astronomico
Luna
Estensione della luce visibile
Lunghezza del giorno
Tomorrow will be .
, % of the Moon is Illuminated

Gli estremi di oggi

State Highs State Lows

Community

WunderPhotos

Upload Photos

1,941,837 foto caricate!

WunderBlog® & News

Nearby

Qualità dell'aria

  Qualità dell'aria Indice AQ Inquinante
Not available.

Profondità neve

Stazione Profondità Altitudine

Attività sismica

Città  Distanza Mag. Data & Ora
Minimo Magnitudo Mostrato è 2.5.

Temperature delle acque costiere

Località Temperatura

Stations

Stazioni meteo nelle vicinanze

Ubicazione della stazione Temp. Raffreddamento del vento Punto di rugiada Umidità Vento Precip. Alt. Aggiornato Tipo
                   

Watches & Warnings

There are currently no watches in effect.